Tuesday, October 16, 2018, 11:01 PM GMT
Back to Local

CYYG, Charlottetown, P. E. I.

Location: , , Canada Lat: 46.283
Local Time: 11:01 PM GMT (23:01 GMT) Lon: -63.133
Time Zone: GMT Elev: 157 ft

Show me the last for .
Show Coded

Time T Td Feel RH Dir Speed Gust Alt SLP Vis Weather Sky Remarks
2018-10-16 22:00 46 34 39 61 250° 10 18 29.66 29.66 15 SCT045 None
2018-10-16 21:00 48 34 41 57 270° 12 23 29.62 29.63 15 FEW042 None
2018-10-16 20:00 50 34 42 53 260° 20 31 29.59 29.59 15 SCT042 None
2018-10-16 19:00 52 36 - 53 270° 21 30 29.56 29.57 15 SCT045 None
2018-10-16 18:00 50 34 41 53 270° 25 43 29.53 29.54 15 BKN045 None
2018-10-16 17:00 48 32 39 53 250° 22 37 29.50 29.51 15 BKN042 None
2018-10-16 16:00 46 32 37 56 250° 22 35 29.47 29.48 15 BKN040 None
2018-10-16 15:00 46 32 35 56 260° 28 46 29.44 29.45 15 BKN035 None
2018-10-16 14:00 46 32 35 56 260° 25 47 29.41 29.41 15 BKN042 None
2018-10-16 13:00 46 30 35 52 260° 31 47 29.39 29.39 15 BKN040 None
2018-10-16 12:00 48 37 39 66 270° 23 33 29.36 29.37 15 FEW040 SCT060 None
2018-10-16 11:53 48 37 39 66 260° 21 31 29.36 29.37 15 FEW040 BKN060 None
2018-10-16 11:30 48 36 38 61 270° 29 45 29.35 29.36 15 -SHRA FEW020 BKN055 None
2018-10-16 11:00 48 37 38 66 280° 22 39 29.32 29.33 15 FEW015 SCT038 BKN090 None
2018-10-16 10:56 48 37 38 66 290° 24 39 29.32 29.33 15 FEW015 BKN038 BKN090 None
2018-10-16 10:39 48 43 37 81 280° 28 56 29.32 29.33 10 -RA SCT008 BKN015 BKN045 Pressure rising rapidly
2018-10-16 10:00 59 59 - 100 220° 15 23 29.25 29.26 12 -RA BKN006 OVC017 Pressure falling rapidly
2018-10-16 09:21 59 59 - 100 200° 17 - 29.28 29.29 15 -RA OVC006 Pressure falling rapidly
2018-10-16 09:00 57 57 - 100 200° 15 - 29.32 29.32 6 RA OVC006 None
2018-10-16 08:00 57 57 - 100 190° 14 - 29.36 29.36 8 -RA OVC005 Pressure falling rapidly
2018-10-16 07:00 55 55 - 100 210° 13 18 29.44 29.45 6 RA OVC006 None
2018-10-16 06:00 54 54 - 100 170° 18 25 29.51 29.51 6 RA BKN005 OVC014 Pressure falling rapidly
2018-10-16 05:00 54 52 - 93 180° 21 26 29.60 29.61 10 -RA SCT008 OVC014 Pressure falling rapidly
2018-10-16 04:00 52 52 - 100 180° 20 30 29.68 29.69 12 -RA BKN008 OVC016 None
2018-10-16 03:00 52 50 - 93 170° 23 31 29.75 29.76 12 -RA FEW009 BKN016 OVC044 Pressure falling rapidly
2018-10-16 02:00 52 48 - 87 170° 23 31 29.82 29.83 12 -RA OVC074 Pressure falling rapidly
2018-10-16 01:00 52 46 - 81 170° 21 30 29.89 29.90 12 -RA OVC074 Pressure falling rapidly
2018-10-16 00:00 50 46 42 87 180° 20 32 29.94 29.95 15 -RA OVC077 None
2018-10-15 23:06 54 45 - 71 180° 21 29 29.97 29.98 15 -RA OVC076 Pressure falling rapidly

Support USWX by starting your Amazon purchase here.